Time;durP1;ratioP1;P1;durP2;ratioP2;P2;SDS_P1;SDS_P2;PMS_P1;PMS_P2;Temp;Humidity;BMP_temperature;BMP_pressure;BME280_temperature;BME280_humidity;BME280_pressure;Samples;Min_cycle;Max_cycle;Signal;HPM_P1;HPM_P2
2022/04/14 00:00:28;;;;;;;3.10;1.30;;;;;;;10.08;37.63;101471.36;105079;1279;73688;-64
2022/04/14 00:03:04;;;;;;;2.60;1.30;;;;;;;10.06;37.74;101470.27;105089;1276;62227;-64
2022/04/14 00:05:34;;;;;;;4.10;1.40;;;;;;;10.08;37.63;101471.54;105154;1276;60729;-65
2022/04/14 00:08:04;;;;;;;2.40;1.30;;;;;;;10.08;37.58;101470.84;105133;1278;75062;-65
2022/04/14 00:10:33;;;;;;;4.60;1.40;;;;;;;10.09;37.46;101466.27;105224;1276;73248;-68
2022/04/14 00:13:02;;;;;;;3.00;1.30;;;;;;;10.10;37.39;101469.17;105131;1277;70727;-66
2022/04/14 00:15:32;;;;;;;3.10;1.40;;;;;;;10.10;37.43;101469.33;105217;1276;73379;-64
2022/04/14 00:18:01;;;;;;;2.10;1.20;;;;;;;10.10;37.61;101468.11;105176;1276;61396;-65
2022/04/14 00:20:30;;;;;;;2.50;1.30;;;;;;;10.12;37.44;101467.46;105216;1278;60279;-65
2022/04/14 00:22:59;;;;;;;3.40;1.30;;;;;;;10.12;37.50;101473.42;105203;1277;73402;-65
2022/04/14 00:25:29;;;;;;;2.90;1.20;;;;;;;10.14;37.44;101476.06;105186;1277;70545;-63
2022/04/14 00:27:58;;;;;;;5.30;1.60;;;;;;;10.17;37.46;101478.13;105132;1276;69755;-66
2022/04/14 00:30:28;;;;;;;4.50;1.80;;;;;;;10.14;37.73;101479.34;105129;1277;71984;-66
2022/04/14 00:32:57;;;;;;;3.50;1.20;;;;;;;10.13;37.96;101482.20;105113;1279;59033;-69
2022/04/14 00:35:26;;;;;;;3.70;1.20;;;;;;;10.08;38.19;101478.52;105165;1276;60702;-67
2022/04/14 00:37:55;;;;;;;4.20;1.40;;;;;;;10.05;38.35;101475.70;105133;1279;74225;-67
2022/04/14 00:40:24;;;;;;;2.60;1.10;;;;;;;10.02;38.83;101474.85;105157;1277;70917;-63
2022/04/14 00:42:53;;;;;;;2.30;1.10;;;;;;;9.96;39.05;101478.49;105138;1276;68154;-67
2022/04/14 00:45:22;;;;;;;3.40;1.10;;;;;;;9.96;39.31;101478.34;104988;1279;73484;-69
2022/04/14 00:47:53;;;;;;;3.10;0.90;;;;;;;9.98;39.10;101482.05;105200;1276;62330;-69
2022/04/14 00:50:22;;;;;;;1.80;1.10;;;;;;;9.93;39.27;101487.89;105154;1276;59756;-69
2022/04/14 00:52:53;;;;;;;6.50;1.30;;;;;;;9.92;39.32;101487.60;105140;1276;73028;-72
2022/04/14 00:55:22;;;;;;;3.70;1.30;;;;;;;9.92;39.26;101489.70;105184;1277;69788;-66
2022/04/14 00:57:51;;;;;;;3.90;1.50;;;;;;;9.92;39.28;101487.63;105184;1277;69092;-66
2022/04/14 01:00:20;;;;;;;4.00;1.30;;;;;;;9.92;39.25;101486.02;105204;1279;71374;-67
2022/04/14 01:02:49;;;;;;;2.80;1.20;;;;;;;9.92;39.24;101485.89;105223;1277;61446;-63
2022/04/14 01:05:20;;;;;;;2.10;1.20;;;;;;;9.94;38.86;101485.92;105068;1276;61914;-64
2022/04/14 01:07:50;;;;;;;2.40;1.30;;;;;;;9.94;39.01;101486.63;105068;1277;72552;-61
2022/04/14 01:10:19;;;;;;;5.00;1.60;;;;;;;9.97;38.84;101488.35;105151;1279;70390;-64
2022/04/14 01:13:44;;;;;;;4.70;1.60;;;;;;;9.97;38.97;101492.02;105248;1276;69286;-64
2022/04/14 01:16:31;;;;;;;2.30;1.10;;;;;;;9.96;38.87;101488.27;105151;1277;71418;-64
2022/04/14 01:19:00;;;;;;;4.70;1.60;;;;;;;9.96;38.93;101488.23;105166;1276;59639;-64
2022/04/14 01:21:34;;;;;;;4.60;1.90;;;;;;;9.93;38.78;101489.45;105132;1277;61310;-66
2022/04/14 01:24:04;;;;;;;7.60;1.80;;;;;;;9.97;38.70;101490.30;105177;1276;73622;-64
2022/04/14 01:26:36;;;;;;;3.70;1.40;;;;;;;9.95;38.57;101494.89;105191;1276;72466;-66
2022/04/14 01:29:04;;;;;;;3.30;1.80;;;;;;;9.91;38.78;101500.05;105176;1279;71197;-67
2022/04/14 01:31:33;;;;;;;3.30;1.60;;;;;;;9.91;38.67;101506.77;105161;1276;72795;-65
2022/04/14 01:34:02;;;;;;;3.30;1.90;;;;;;;9.91;38.67;101505.77;105075;1276;59731;-67
2022/04/14 01:36:31;;;;;;;4.10;1.40;;;;;;;9.89;38.86;101495.63;105141;1277;59705;-68
2022/04/14 01:39:00;;;;;;;4.00;1.50;;;;;;;9.85;39.01;101497.77;105104;1276;72985;-65
2022/04/14 01:41:29;;;;;;;5.50;2.10;;;;;;;9.86;39.04;101498.60;105173;1276;70577;-65
2022/04/14 01:43:57;;;;;;;4.90;1.80;;;;;;;9.81;38.98;101497.96;104992;1279;71162;-64
2022/04/14 01:46:26;;;;;;;4.10;1.60;;;;;;;9.79;39.04;101502.95;105011;1279;73659;-66
2022/04/14 01:48:55;;;;;;;3.30;1.50;;;;;;;9.82;38.93;101505.25;105021;1279;59741;-63
2022/04/14 01:51:24;;;;;;;3.70;1.30;;;;;;;9.81;39.11;101500.59;105008;1276;59520;-63
2022/04/14 01:53:54;;;;;;;2.90;1.50;;;;;;;9.80;39.32;101501.64;104970;1276;72977;-65
2022/04/14 01:56:23;;;;;;;2.30;1.10;;;;;;;9.77;39.31;101503.77;104977;1277;71373;-66
2022/04/14 01:58:55;;;;;;;4.80;1.90;;;;;;;9.72;39.58;101501.11;105045;1276;71405;-65
2022/04/14 02:01:24;;;;;;;3.20;1.80;;;;;;;9.66;39.89;101495.71;105040;1276;73661;-65
2022/04/14 02:03:54;;;;;;;4.30;1.60;;;;;;;9.63;39.96;101497.60;105031;1276;59632;-68
2022/04/14 02:06:23;;;;;;;5.30;1.60;;;;;;;9.59;39.91;101494.70;105036;1276;60992;-69
2022/04/14 02:08:52;;;;;;;6.80;1.70;;;;;;;9.57;40.01;101495.00;105081;1276;74919;-68
2022/04/14 02:11:21;;;;;;;6.40;2.10;;;;;;;9.54;40.15;101499.46;104922;1277;72450;-67
2022/04/14 02:13:50;;;;;;;5.90;1.90;;;;;;;9.50;40.07;101492.92;105087;1276;69994;-70
2022/04/14 02:16:18;;;;;;;3.60;1.70;;;;;;;9.48;40.14;101500.36;105041;1276;73185;-68
2022/04/14 02:18:47;;;;;;;4.60;1.70;;;;;;;9.46;40.18;101502.91;105071;1276;61530;-62
2022/04/14 02:21:16;;;;;;;2.90;1.60;;;;;;;9.41;40.34;101508.71;105025;1279;62067;-65
2022/04/14 02:23:45;;;;;;;3.80;1.60;;;;;;;9.39;40.16;101505.56;104954;1276;72141;-63
2022/04/14 02:26:16;;;;;;;7.70;1.90;;;;;;;9.40;40.11;101505.84;105066;1276;70928;-64
2022/04/14 02:28:45;;;;;;;6.70;1.90;;;;;;;9.37;40.14;101507.39;105164;1277;70148;-63
2022/04/14 02:31:14;;;;;;;4.20;2.00;;;;;;;9.33;40.35;101509.55;104960;1277;74539;-66
2022/04/14 02:33:43;;;;;;;3.20;1.60;;;;;;;9.30;40.31;101508.09;105050;1279;60819;-67
2022/04/14 02:36:12;;;;;;;4.80;1.80;;;;;;;9.29;40.33;101512.51;105046;1277;59913;-69
2022/04/14 02:38:43;;;;;;;2.90;1.50;;;;;;;9.24;40.53;101518.35;105012;1277;72391;-68
2022/04/14 02:41:12;;;;;;;3.20;1.70;;;;;;;9.22;40.53;101516.34;105039;1276;72730;-69
2022/04/14 02:43:41;;;;;;;6.00;2.00;;;;;;;9.14;40.36;101505.66;104999;1276;69441;-65
2022/04/14 02:46:10;;;;;;;4.00;1.80;;;;;;;9.18;40.51;101518.81;104982;1276;72505;-62
2022/04/14 02:48:39;;;;;;;5.20;1.90;;;;;;;9.15;40.69;101518.47;105005;1279;59606;-68
2022/04/14 02:51:08;;;;;;;6.70;2.30;;;;;;;9.13;40.81;101515.48;104976;1276;60314;-66
2022/04/14 02:53:37;;;;;;;5.60;2.20;;;;;;;9.07;40.93;101514.56;104969;1279;73330;-63
2022/04/14 02:56:06;;;;;;;5.00;2.60;;;;;;;9.09;40.66;101512.91;105041;1279;72959;-64
2022/04/14 02:58:37;;;;;;;4.50;2.10;;;;;;;9.11;40.27;101512.64;105101;1276;71476;-65
2022/04/14 03:01:06;;;;;;;4.10;1.60;;;;;;;9.12;40.19;101514.29;105085;1279;74958;-66
2022/04/14 03:03:35;;;;;;;5.50;2.00;;;;;;;9.14;40.33;101515.27;105105;1276;60026;-68
2022/04/14 03:06:05;;;;;;;4.90;1.90;;;;;;;9.13;40.33;101515.98;105114;1277;59697;-68
2022/04/14 03:08:34;;;;;;;4.20;2.10;;;;;;;9.09;40.46;101513.39;105184;1276;72650;-69
2022/04/14 03:11:03;;;;;;;5.30;2.20;;;;;;;9.08;40.61;101512.79;105129;1279;70254;-71
2022/04/14 03:13:32;;;;;;;7.10;2.10;;;;;;;9.06;40.13;101513.58;105358;1277;70734;-70
2022/04/14 03:16:01;;;;;;;7.60;2.30;;;;;;;9.07;39.86;101515.59;105015;1276;74579;-67
2022/04/14 03:18:31;;;;;;;5.50;2.50;;;;;;;9.10;39.58;101519.45;105172;1276;62436;-66
2022/04/14 03:21:01;;;;;;;8.10;3.10;;;;;;;9.12;39.23;101523.00;105176;1277;59784;-69
2022/04/14 03:23:30;;;;;;;6.10;2.30;;;;;;;9.15;39.18;101523.36;105076;1279;73323;-69
2022/04/14 03:25:59;;;;;;;8.90;3.10;;;;;;;9.13;39.40;101522.27;105118;1276;70887;-68
2022/04/14 03:28:28;;;;;;;8.00;3.40;;;;;;;9.10;39.37;101514.08;105128;1279;70489;-67
2022/04/14 03:30:59;;;;;;;13.70;6.00;;;;;;;9.06;39.46;101520.35;105116;1279;73290;-69
2022/04/14 03:33:29;;;;;;;12.70;3.60;;;;;;;9.02;39.45;101525.61;105115;1279;59648;-66
2022/04/14 03:35:58;;;;;;;7.20;3.20;;;;;;;8.97;39.54;101518.36;105097;1278;59020;-68
2022/04/14 03:38:28;;;;;;;5.70;2.30;;;;;;;8.89;39.33;101521.77;104831;1279;74730;-66
2022/04/14 03:41:07;;;;;;;5.00;2.30;;;;;;;8.82;39.68;101524.91;104976;1279;72241;-66
2022/04/14 03:43:36;;;;;;;6.80;2.50;;;;;;;8.71;39.94;101527.41;105037;1280;68823;-69
2022/04/14 03:46:05;;;;;;;6.30;2.60;;;;;;;8.60;40.10;101527.98;105040;1280;75171;-69
2022/04/14 03:48:35;;;;;;;5.80;2.10;;;;;;;8.43;40.48;101527.29;105030;1280;61157;-68
2022/04/14 03:51:03;;;;;;;4.60;2.10;;;;;;;8.34;40.70;101526.16;105055;1279;60486;-67
2022/04/14 03:53:33;;;;;;;5.00;2.10;;;;;;;8.26;40.74;101533.46;104889;1281;74584;-68
2022/04/14 03:56:02;;;;;;;6.60;2.50;;;;;;;8.18;40.78;101533.85;104877;1280;73142;-67
2022/04/14 03:58:31;;;;;;;4.80;2.20;;;;;;;8.14;41.11;101541.48;104946;1279;68847;-68
2022/04/14 04:01:00;;;;;;;5.20;2.40;;;;;;;8.10;40.88;101545.52;104878;1279;74402;-70
2022/04/14 04:03:29;;;;;;;5.00;2.30;;;;;;;8.04;41.03;101547.89;104771;1281;59786;-70
2022/04/14 04:05:58;;;;;;;4.60;2.40;;;;;;;7.97;41.40;101544.57;104862;1279;61698;-70
2022/04/14 04:08:27;;;;;;;6.40;2.90;;;;;;;7.90;41.85;101547.35;104869;1279;74198;-70
2022/04/14 04:10:56;;;;;;;9.50;2.70;;;;;;;7.87;41.63;101550.42;105077;1280;73218;-75
2022/04/14 04:13:24;;;;;;;8.60;2.90;;;;;;;7.82;42.27;101551.88;106041;1279;70787;-66
2022/04/14 04:15:54;;;;;;;6.80;3.30;;;;;;;7.79;42.43;101556.57;105806;1279;73655;-71
2022/04/14 04:18:22;;;;;;;8.20;2.70;;;;;;;7.76;42.64;101555.68;105106;1281;60299;-70
2022/04/14 04:20:51;;;;;;;7.90;2.80;;;;;;;7.74;42.45;101556.80;105104;1281;61443;-72
2022/04/14 04:23:21;;;;;;;6.30;3.20;;;;;;;7.75;42.41;101556.04;105084;1279;75632;-68
2022/04/14 04:25:50;;;;;;;6.30;2.80;;;;;;;7.78;42.94;101558.18;105140;1279;71862;-74
2022/04/14 04:28:18;;;;;;;6.30;2.60;;;;;;;7.80;42.94;101562.77;105074;1280;69362;-73
2022/04/14 04:30:48;;;;;;;8.60;2.80;;;;;;;7.78;43.18;101563.89;105037;1280;71322;-72
2022/04/14 04:33:17;;;;;;;5.80;2.70;;;;;;;7.76;43.25;101560.32;105331;1279;60703;-73
2022/04/14 04:35:46;;;;;;;8.00;3.10;;;;;;;7.77;43.32;101558.73;104902;1281;61501;-73
2022/04/14 04:38:15;;;;;;;7.80;2.80;;;;;;;7.79;43.05;101556.92;104879;1279;74500;-72
2022/04/14 04:40:44;;;;;;;7.70;2.70;;;;;;;7.80;43.32;101552.66;104961;1279;73268;-74
2022/04/14 04:43:15;;;;;;;5.90;2.80;;;;;;;7.84;43.13;101561.52;104849;1279;70107;-72
2022/04/14 04:45:44;;;;;;;6.60;3.20;;;;;;;7.86;43.30;101560.38;104870;1280;75228;-72
2022/04/14 04:48:13;;;;;;;8.60;3.10;;;;;;;7.87;43.35;101557.39;105148;1278;60445;-70
2022/04/14 04:50:43;;;;;;;6.00;3.20;;;;;;;7.93;43.23;101561.41;105002;1280;59714;-72
2022/04/14 04:53:11;;;;;;;7.10;3.50;;;;;;;8.01;43.32;101566.27;104997;1278;75445;-71
2022/04/14 04:55:41;;;;;;;7.00;3.20;;;;;;;8.10;43.35;101570.69;105085;1278;73535;-71
2022/04/14 04:58:09;;;;;;;9.80;3.80;;;;;;;8.18;43.10;101579.10;104809;1281;69998;-71
2022/04/14 05:00:38;;;;;;;9.00;3.50;;;;;;;8.20;43.32;101582.69;104926;1279;73260;-70
2022/04/14 05:03:09;;;;;;;8.50;3.30;;;;;;;8.24;43.46;101579.73;104908;1279;59648;-69
2022/04/14 05:05:40;;;;;;;9.10;2.70;;;;;;;8.30;43.13;101576.14;104874;1280;61602;-68
2022/04/14 05:08:08;;;;;;;6.30;2.90;;;;;;;8.37;43.19;101577.38;104947;1279;74652;-68
2022/04/14 05:10:37;;;;;;;11.30;3.50;;;;;;;8.45;42.79;101578.90;104840;1280;72522;-70
2022/04/14 05:13:06;;;;;;;11.00;3.60;;;;;;;8.56;42.46;101577.14;104962;1279;70398;-70
2022/04/14 05:15:36;;;;;;;6.70;3.30;;;;;;;8.65;42.60;101577.38;104780;1281;73912;-70
2022/04/14 05:18:05;;;;;;;5.10;2.50;;;;;;;8.72;42.32;101582.23;104835;1279;61202;-71
2022/04/14 05:20:38;;;;;;;13.30;4.10;;;;;;;8.68;42.87;101582.95;105043;1281;62170;-69
2022/04/14 05:23:09;;;;;;;9.80;3.60;;;;;;;8.73;42.68;101586.83;105058;1279;74791;-72
2022/04/14 05:25:41;;;;;;;12.40;3.60;;;;;;;8.74;42.54;101600.87;104967;1279;70678;-72
2022/04/14 05:28:10;;;;;;;8.40;3.90;;;;;;;8.72;42.66;101597.66;104820;1279;68170;-71
2022/04/14 05:30:39;;;;;;;9.40;3.70;;;;;;;8.77;42.47;101595.86;105071;1280;72519;-71
2022/04/14 05:33:10;;;;;;;8.30;3.50;;;;;;;8.85;42.60;101601.73;105072;1280;59753;-78
2022/04/14 05:35:43;;;;;;;9.50;3.20;;;;;;;8.92;42.20;101605.87;105117;1279;59135;-71
2022/04/14 05:38:12;;;;;;;8.60;3.50;;;;;;;9.00;41.92;101607.36;104881;1278;76062;-70
2022/04/14 05:40:45;;;;;;;6.60;3.10;;;;;;;9.09;41.47;101615.75;104865;1279;72489;-70
2022/04/14 05:43:15;;;;;;;6.80;3.30;;;;;;;9.15;41.08;101614.94;104904;1278;71177;-67
2022/04/14 05:45:47;;;;;;;6.00;3.00;;;;;;;9.17;40.87;101618.85;104959;1278;73017;-71
2022/04/14 05:48:18;;;;;;;8.40;3.50;;;;;;;9.13;41.05;101613.98;104891;1278;61682;-71
2022/04/14 05:50:49;;;;;;;7.50;3.60;;;;;;;9.17;41.05;101615.19;104948;1279;59022;-72
2022/04/14 05:53:25;;;;;;;9.50;4.10;;;;;;;9.27;40.71;101612.05;104903;1278;75147;-72
2022/04/14 05:55:55;;;;;;;9.00;3.70;;;;;;;9.34;40.63;101609.95;104896;1279;72580;-71
2022/04/14 05:58:24;;;;;;;6.20;3.10;;;;;;;9.42;40.58;101612.30;104689;1279;70335;-70
2022/04/14 06:00:52;;;;;;;9.50;3.00;;;;;;;9.43;40.07;101608.59;104730;1279;74351;-70
2022/04/14 06:03:22;;;;;;;8.60;3.90;;;;;;;9.55;39.97;101611.92;104919;1277;61528;-72
2022/04/14 06:05:51;;;;;;;6.50;3.20;;;;;;;9.62;39.85;101610.50;104804;1280;60495;-72
2022/04/14 06:08:19;;;;;;;6.00;3.00;;;;;;;9.71;40.05;101607.07;104964;1279;74549;-72
2022/04/14 06:10:48;;;;;;;8.50;3.90;;;;;;;9.84;39.60;101608.46;104777;1279;72351;-73
2022/04/14 06:13:17;;;;;;;7.10;3.60;;;;;;;9.95;39.18;101615.50;104297;1279;598764;-73
2022/04/14 06:15:46;;;;;;;10.70;4.20;;;;;;;10.01;39.07;101608.36;105056;1279;71423;-71
2022/04/14 06:18:15;;;;;;;6.10;3.10;;;;;;;10.06;39.24;101606.18;105060;1279;60245;-70
2022/04/14 06:20:47;;;;;;;7.70;3.00;;;;;;;10.17;38.96;101612.70;105138;1278;59176;-69
2022/04/14 06:23:17;;;;;;;7.20;3.50;;;;;;;10.18;38.74;101619.45;104860;1279;74066;-69
2022/04/14 06:25:49;;;;;;;7.10;3.40;;;;;;;10.17;39.00;101617.95;104955;1278;72539;-72
2022/04/14 06:28:19;;;;;;;6.50;3.60;;;;;;;10.20;39.34;101617.24;105178;1278;68525;-70
2022/04/14 06:30:49;;;;;;;6.20;3.30;;;;;;;10.17;39.21;101620.19;105177;1279;71387;-72
2022/04/14 06:33:19;;;;;;;7.30;3.00;;;;;;;10.34;39.18;101613.72;104850;1280;61756;-72
2022/04/14 06:35:48;;;;;;;6.50;3.40;;;;;;;10.44;38.52;101610.00;104927;1279;61194;-70
2022/04/14 06:38:17;;;;;;;5.70;3.00;;;;;;;10.51;38.02;101620.90;104947;1279;75000;-71
2022/04/14 06:40:47;;;;;;;5.70;2.80;;;;;;;10.59;37.93;101622.32;105021;1279;73305;-70
2022/04/14 06:43:16;;;;;;;5.90;2.60;;;;;;;10.67;37.92;101620.17;104991;1279;69138;-74
2022/04/14 06:45:45;;;;;;;8.40;3.20;;;;;;;10.71;37.50;101623.21;104945;1279;73000;-72
2022/04/14 06:48:14;;;;;;;8.90;3.00;;;;;;;10.78;37.62;101609.08;104964;1279;60795;-71
2022/04/14 06:50:43;;;;;;;6.90;3.00;;;;;;;10.84;37.54;101606.75;105087;1278;62064;-70
2022/04/14 06:53:12;;;;;;;7.60;3.00;;;;;;;10.91;37.84;101608.42;105053;1279;73315;-71
2022/04/14 06:55:45;;;;;;;4.30;2.60;;;;;;;11.04;37.23;101615.20;105008;1282;70435;-71
2022/04/14 06:58:14;;;;;;;5.60;2.90;;;;;;;11.05;37.18;101610.61;104967;1279;71209;-71
2022/04/14 07:00:43;;;;;;;5.90;2.70;;;;;;;11.12;37.16;101607.52;105058;1279;71783;-71
2022/04/14 07:03:12;;;;;;;6.00;2.80;;;;;;;11.23;36.98;101606.00;104968;1280;58961;-71
2022/04/14 07:05:41;;;;;;;6.90;3.10;;;;;;;11.36;36.80;101601.34;105092;1279;60657;-70
2022/04/14 07:08:10;;;;;;;9.20;2.80;;;;;;;11.44;36.19;101604.57;105022;1279;72265;-71
2022/04/14 07:10:40;;;;;;;5.50;2.90;;;;;;;11.51;35.90;101601.49;105050;1279;72771;-74
2022/04/14 07:13:11;;;;;;;4.50;2.40;;;;;;;11.67;35.64;101606.96;104833;1280;70343;-71
2022/04/14 07:15:41;;;;;;;4.70;2.80;;;;;;;11.76;35.27;101606.73;104923;1280;74642;-71
2022/04/14 07:18:10;;;;;;;6.90;2.80;;;;;;;11.81;35.18;101605.71;104979;1279;61125;-72
2022/04/14 07:20:39;;;;;;;6.60;2.60;;;;;;;11.82;34.99;101602.70;105070;1279;61374;-71
2022/04/14 07:23:08;;;;;;;7.40;2.80;;;;;;;11.82;35.35;101608.27;105096;1280;73846;-71
2022/04/14 07:25:37;;;;;;;5.30;2.90;;;;;;;11.89;35.01;101606.77;104898;1279;72623;-70
2022/04/14 07:28:07;;;;;;;6.20;2.80;;;;;;;11.82;35.27;101610.52;104885;1280;70599;-71
2022/04/14 07:30:36;;;;;;;5.50;2.70;;;;;;;11.82;35.50;101607.42;105090;1278;73776;-72
2022/04/14 07:33:06;;;;;;;5.70;2.70;;;;;;;12.03;35.22;101609.77;104935;1279;59710;-72
2022/04/14 07:35:35;;;;;;;7.60;3.20;;;;;;;12.05;35.34;101608.59;104842;1281;60943;-72
2022/04/14 07:38:05;;;;;;;5.50;2.70;;;;;;;12.22;35.05;101602.22;104891;1279;74518;-72
2022/04/14 07:40:34;;;;;;;8.80;2.90;;;;;;;12.35;34.83;101606.13;104646;1281;71717;-70
2022/04/14 07:43:03;;;;;;;6.30;2.70;;;;;;;12.38;34.67;101599.05;104601;1280;71591;-71
2022/04/14 07:45:32;;;;;;;8.90;2.90;;;;;;;12.49;34.57;101596.79;104615;1282;72344;-72
2022/04/14 07:48:02;;;;;;;6.30;2.90;;;;;;;12.56;34.70;101595.11;104773;1280;59675;-70
2022/04/14 07:50:32;;;;;;;6.80;3.10;;;;;;;12.69;34.78;101583.20;104794;1279;60986;-72
2022/04/14 07:53:04;;;;;;;4.70;2.50;;;;;;;12.88;34.74;101585.07;104571;1282;72321;-71
2022/04/14 07:55:35;;;;;;;8.30;2.80;;;;;;;13.01;34.25;101581.73;104878;1279;69765;-72
2022/04/14 07:58:09;;;;;;;6.40;1.90;;;;;;;13.18;34.17;101589.98;104822;1280;69150;-71
2022/04/14 08:00:40;;;;;;;3.80;1.90;;;;;;;13.30;33.80;101589.36;104876;1280;74180;-73
2022/04/14 08:03:09;;;;;;;5.20;2.10;;;;;;;13.33;33.56;101587.79;105116;1281;61434;-76
2022/04/14 08:05:43;;;;;;;4.20;1.90;;;;;;;13.46;33.92;101597.84;105155;1279;59475;-72
2022/04/14 08:08:19;;;;;;;4.50;1.70;;;;;;;13.58;33.51;101600.57;105017;1280;72754;-72
2022/04/14 08:10:49;;;;;;;5.20;2.00;;;;;;;13.54;33.72;101602.74;105100;1279;69845;-72
2022/04/14 08:13:19;;;;;;;5.30;2.20;;;;;;;13.57;33.86;101623.14;105012;1280;71125;-72
2022/04/14 08:15:49;;;;;;;5.80;2.30;;;;;;;13.62;33.70;101602.66;104821;1282;74571;-70
2022/04/14 08:18:17;;;;;;;3.70;1.80;;;;;;;13.65;34.06;101602.66;104970;1280;60482;-71
2022/04/14 08:20:46;;;;;;;4.60;2.20;;;;;;;13.69;33.89;101604.80;105007;1279;59285;-72
2022/04/14 08:23:16;;;;;;;5.00;1.70;;;;;;;13.79;33.84;101601.34;104923;1283;74716;-72
2022/04/14 08:25:46;;;;;;;6.30;2.10;;;;;;;13.87;34.06;101600.41;104942;1280;70313;-71
2022/04/14 08:28:40;;;;;;;8.30;2.50;;;;;;;14.02;34.00;101592.45;104906;1282;70978;-70
2022/04/14 08:31:11;;;;;;;5.30;1.70;;;;;;;14.11;33.98;101596.66;104791;1281;73342;-71
2022/04/14 08:33:41;;;;;;;4.90;1.90;;;;;;;14.13;34.16;101593.26;104781;1281;62132;-71
2022/04/14 08:36:15;;;;;;;4.80;1.80;;;;;;;14.18;34.27;101590.60;104753;1280;61204;-71
2022/04/14 08:38:47;;;;;;;6.40;2.00;;;;;;;14.17;34.77;101599.73;104830;1280;75420;-71
2022/04/14 08:41:20;;;;;;;5.10;1.80;;;;;;;14.14;34.55;101605.56;104648;1281;71859;-72
2022/04/14 08:44:00;;;;;;;3.70;1.60;;;;;;;14.25;34.19;101596.56;104655;1282;70576;-71
2022/04/14 08:46:30;;;;;;;6.20;1.80;;;;;;;14.36;34.72;101595.20;104797;1280;72635;-71
2022/04/14 08:49:01;;;;;;;6.30;1.70;;;;;;;14.45;34.78;101594.90;104812;1282;61832;-74
2022/04/14 08:51:36;;;;;;;4.50;1.70;;;;;;;14.37;34.84;101593.17;105012;1282;60999;-74
2022/04/14 08:54:07;;;;;;;6.60;1.70;;;;;;;14.54;34.43;101593.89;104886;1283;73802;-73
2022/04/14 08:56:36;;;;;;;4.70;1.70;;;;;;;14.57;34.37;101596.30;105134;1279;70944;-75
2022/04/14 08:59:07;;;;;;;4.80;2.10;;;;;;;14.70;34.53;101592.13;104997;1280;68547;-73
2022/04/14 09:01:38;;;;;;;6.90;1.90;;;;;;;14.73;35.24;101596.65;104628;1279;71897;-71
2022/04/14 09:04:07;;;;;;;4.30;2.00;;;;;;;14.75;35.23;101597.35;104849;1280;61513;-70
2022/04/14 09:06:37;;;;;;;5.90;2.40;;;;;;;14.85;35.17;101599.78;104888;1280;61309;-73
2022/04/14 09:09:06;;;;;;;6.20;2.30;;;;;;;14.94;34.73;101590.83;105078;1282;75252;-72
2022/04/14 09:11:34;;;;;;;6.40;2.20;;;;;;;14.73;34.88;101602.58;105276;1280;73241;-76
2022/04/14 09:14:03;;;;;;;5.80;2.40;;;;;;;14.80;35.01;101600.17;105224;1280;71704;-74
2022/04/14 09:16:33;;;;;;;5.40;2.30;;;;;;;14.64;35.77;101595.98;105026;1280;73585;-74
2022/04/14 09:19:03;;;;;;;5.60;2.60;;;;;;;14.80;35.43;101597.92;104972;1280;60666;-74
2022/04/14 09:21:33;;;;;;;6.20;2.60;;;;;;;14.85;35.57;101600.61;105017;1279;60601;-72
2022/04/14 09:24:02;;;;;;;7.40;2.50;;;;;;;14.88;35.69;101604.95;104869;1280;71893;-71
2022/04/14 09:26:31;;;;;;;7.20;2.50;;;;;;;15.03;35.34;101598.92;104949;1279;70556;-70
2022/04/14 09:29:10;;;;;;;5.80;2.40;;;;;;;15.05;34.88;101612.13;104865;1279;69845;-70
2022/04/14 09:31:51;;;;;;;5.70;2.80;;;;;;;14.84;35.43;101604.42;104981;1279;72869;-71
2022/04/14 09:34:51;;;;;;;4.90;2.40;;;;;;;14.86;34.39;101604.11;105009;1280;60614;-73
2022/04/14 09:37:23;;;;;;;5.50;2.20;;;;;;;14.56;34.62;101610.39;104887;1282;59579;-72
2022/04/14 09:40:05;;;;;;;6.90;2.60;;;;;;;14.70;34.89;101610.56;104930;1280;74983;-72
2022/04/14 09:42:43;;;;;;;4.20;1.80;;;;;;;14.83;34.76;101612.41;105045;1277;70979;-71
2022/04/14 09:45:29;;;;;;;6.00;1.90;;;;;;;14.83;34.56;101612.79;104946;1282;69224;-72
2022/04/14 09:48:10;;;;;;;6.10;2.00;;;;;;;14.85;34.15;101616.80;105049;1279;72273;-72
2022/04/14 09:50:43;;;;;;;4.60;2.00;;;;;;;14.83;34.28;101610.25;105035;1280;60531;-71
2022/04/14 09:53:20;;;;;;;9.40;2.80;;;;;;;14.82;34.36;101609.96;105058;1279;59804;-73
2022/04/14 09:55:49;;;;;;;6.80;2.50;;;;;;;14.78;34.55;101608.95;105049;1279;72682;-72
2022/04/14 09:58:26;;;;;;;8.30;1.80;;;;;;;15.00;33.79;101614.25;105061;1279;70294;-71
2022/04/14 10:00:58;;;;;;;3.90;1.60;;;;;;;15.08;33.35;101600.85;104814;1279;70926;-71
2022/04/14 10:03:30;;;;;;;3.70;1.40;;;;;;;15.00;33.38;101607.27;104987;1280;74985;-72
2022/04/14 10:06:08;;;;;;;6.00;1.60;;;;;;;14.99;33.70;101607.79;104972;1282;61902;-75
2022/04/14 10:08:51;;;;;;;2.90;1.20;;;;;;;14.73;34.38;101609.95;105062;1279;61704;-72
2022/04/14 10:11:35;;;;;;;4.20;2.00;;;;;;;14.86;33.47;101610.40;105080;1280;74329;-73
2022/04/14 10:14:15;;;;;;;;;;;;;;;14.90;33.45;101606.23;105080;1278;71823;-73
2022/04/14 10:16:46;;;;;;;4.10;1.70;;;;;;;14.99;33.38;101609.77;105156;1278;69370;-73
2022/04/14 10:19:16;;;;;;;5.30;1.80;;;;;;;15.04;32.90;101604.12;105152;1280;73958;-72
2022/04/14 10:21:45;;;;;;;6.10;1.90;;;;;;;15.16;32.40;101603.89;105234;1279;61560;-73
2022/04/14 10:24:15;;;;;;;6.60;2.10;;;;;;;15.22;32.14;101610.42;104885;1282;61979;-72
2022/04/14 10:26:46;;;;;;;6.40;3.60;;;;;;;15.29;32.13;101602.86;104956;1282;72536;-72
2022/04/14 10:29:16;;;;;;;3.00;1.80;;;;;;;15.42;32.14;101602.04;104974;1282;72547;-72
2022/04/14 10:31:45;;;;;;;4.70;1.80;;;;;;;15.21;32.74;101601.73;105061;1279;70092;-72
2022/04/14 10:34:16;;;;;;;5.90;2.40;;;;;;;15.41;32.46;101604.92;104876;1282;75188;-72
2022/04/14 10:36:46;;;;;;;6.00;1.90;;;;;;;15.32;32.53;101603.12;104868;1280;61694;-74
2022/04/14 10:39:16;;;;;;;5.50;1.90;;;;;;;15.30;32.74;101596.66;104829;1280;61180;-73
2022/04/14 10:41:50;;;;;;;4.60;1.70;;;;;;;15.46;32.31;101600.46;104902;1280;72656;-73
2022/04/14 10:44:21;;;;;;;3.60;1.60;;;;;;;15.27;32.66;101601.92;104872;1282;69822;-73
2022/04/14 10:47:09;;;;;;;5.20;1.80;;;;;;;15.34;32.75;101603.34;104912;1278;69359;-73
2022/04/14 10:49:40;;;;;;;3.20;1.40;;;;;;;15.43;32.65;101595.10;104852;1278;74557;-74
2022/04/14 10:52:29;;;;;;;4.80;1.80;;;;;;;15.61;32.51;101597.01;104806;1279;60666;-72
2022/04/14 10:55:00;;;;;;;5.20;1.70;;;;;;;15.72;31.94;101595.81;104933;1279;59756;-71
2022/04/14 10:57:42;;;;;;;4.30;1.70;;;;;;;15.72;31.70;101593.58;104829;1279;72670;-70
2022/04/14 11:00:20;;;;;;;4.70;1.80;;;;;;;15.71;32.00;101590.15;104869;1279;72469;-71
2022/04/14 11:03:46;;;;;;;5.10;1.50;;;;;;;15.89;32.03;101599.52;104818;1280;71709;-73
2022/04/14 11:06:40;;;;;;;3.40;1.60;;;;;;;16.02;31.71;101603.61;104720;1279;74521;-72
2022/04/14 11:09:48;;;;;;;6.80;2.00;;;;;;;16.03;31.03;101603.12;104765;1280;60457;-72
2022/04/14 11:12:41;;;;;;;3.20;1.50;;;;;;;15.88;31.12;101603.88;104862;1278;59062;-71
2022/04/14 11:15:12;;;;;;;;;;;;;;;15.83;30.90;101603.35;104993;1278;72691;-72
2022/04/14 11:17:48;;;;;;;2.90;1.50;;;;;;;15.63;31.11;101604.23;105043;1279;71789;-72
2022/04/14 11:20:48;;;;;;;4.20;1.50;;;;;;;15.69;31.12;101607.32;105251;1279;70818;-70
2022/04/14 11:23:35;;;;;;;3.10;1.80;;;;;;;15.65;30.95;101608.65;105012;1281;73762;-71
2022/04/14 11:26:09;;;;;;;3.50;1.50;;;;;;;15.60;30.45;101599.55;105245;1279;60789;-74
2022/04/14 11:28:40;;;;;;;;;;;;;;;15.46;31.13;101599.59;104985;1282;61028;-69
2022/04/14 11:31:18;;;;;;;2.60;1.50;;;;;;;15.32;31.29;101606.66;105064;1280;75168;-72
2022/04/14 11:33:53;;;;;;;3.90;1.40;;;;;;;15.30;30.81;101609.48;105084;1279;72362;-72
2022/04/14 11:36:26;;;;;;;2.90;1.50;;;;;;;15.36;30.69;101602.19;105061;1279;70215;-77
2022/04/14 11:39:20;;;;;;;2.80;1.50;;;;;;;15.49;30.29;101604.08;105153;1279;71437;-74
2022/04/14 11:41:51;;;;;;;5.40;1.70;;;;;;;15.41;30.12;101602.25;104970;1279;60816;-72